Time;durP1;ratioP1;P1;durP2;ratioP2;P2;SDS_P1;SDS_P2;PMS_P1;PMS_P2;Temp;Humidity;BMP_temperature;BMP_pressure;BME280_temperature;BME280_humidity;BME280_pressure;Samples;Min_cycle;Max_cycle;Signal;HPM_P1;HPM_P2
2023/10/27 00:01:50;;;;;;;0.10;0.10;;;;;;;;;;10386627;28;20478;-63
2023/10/27 00:06:50;;;;;;;0.10;0.10;;;;;;;;;;10382080;28;20041;-63
2023/10/27 00:11:50;;;;;;;0.10;0.10;;;;;;;;;;10377828;28;20101;-63
2023/10/27 00:16:52;;;;;;;0.10;0.10;;;;;;;;;;10379816;28;20024;-63
2023/10/27 00:21:53;;;;;;;0.00;0.00;;;;;;;;;;10380923;28;20478;-63
2023/10/27 00:26:53;;;;;;;0.10;0.10;;;;;;;;;;10398935;28;20030;-63
2023/10/27 00:31:53;;;;;;;0.10;0.10;;;;;;;;;;10388854;28;20028;-63
2023/10/27 00:36:53;;;;;;;0.03;0.03;;;;;;;;;;10388823;28;20072;-63
2023/10/27 00:41:53;;;;;;;0.10;0.10;;;;;;;;;;10381698;28;20022;-63
2023/10/27 00:46:55;;;;;;;0.00;0.00;;;;;;;;;;10384285;28;20490;-63
2023/10/27 00:51:55;;;;;;;0.00;0.00;;;;;;;;;;10380495;28;20026;-63
2023/10/27 00:56:55;;;;;;;0.10;0.10;;;;;;;;;;10384105;28;20017;-63
2023/10/27 01:01:56;;;;;;;0.00;0.00;;;;;;;;;;10381622;28;20026;-63
2023/10/27 01:06:56;;;;;;;0.10;0.10;;;;;;;;;;10386619;28;20490;-63
2023/10/27 01:11:56;;;;;;;0.10;0.10;;;;;;;;;;10388366;28;20022;-63
2023/10/27 01:16:57;;;;;;;0.10;0.10;;;;;;;;;;10388386;28;20018;-63
2023/10/27 01:21:57;;;;;;;0.10;0.10;;;;;;;;;;10380415;28;20029;-63
2023/10/27 01:26:59;;;;;;;0.00;0.00;;;;;;;;;;10378205;28;20044;-63
2023/10/27 01:31:59;;;;;;;0.10;0.10;;;;;;;;;;10374960;28;20025;-63
2023/10/27 01:36:59;;;;;;;0.00;0.00;;;;;;;;;;10372914;28;20014;-63
2023/10/27 01:41:59;;;;;;;0.10;0.10;;;;;;;;;;10375945;28;20053;-63
2023/10/27 01:47:00;;;;;;;0.10;0.10;;;;;;;;;;10374044;28;20037;-63
2023/10/27 01:52:00;;;;;;;0.00;0.00;;;;;;;;;;10379665;28;20158;-63
2023/10/27 01:57:01;;;;;;;0.10;0.10;;;;;;;;;;10378628;28;20018;-62
2023/10/27 02:02:01;;;;;;;0.00;0.00;;;;;;;;;;10380270;28;20021;-63
2023/10/27 02:07:01;;;;;;;0.10;0.10;;;;;;;;;;10384796;28;20021;-63
2023/10/27 02:12:02;;;;;;;0.03;0.03;;;;;;;;;;10369744;28;20028;-63
2023/10/27 02:17:03;;;;;;;0.10;0.10;;;;;;;;;;10382148;28;20021;-62
2023/10/27 02:22:03;;;;;;;0.10;0.10;;;;;;;;;;10384815;28;20026;-63
2023/10/27 02:27:03;;;;;;;0.00;0.00;;;;;;;;;;10375580;28;20054;-64
2023/10/27 02:32:04;;;;;;;0.10;0.10;;;;;;;;;;10384364;28;20021;-63
2023/10/27 02:37:04;;;;;;;0.00;0.00;;;;;;;;;;10379163;28;20467;-63
2023/10/27 02:42:04;;;;;;;0.00;0.00;;;;;;;;;;10374789;28;20021;-63
2023/10/27 02:47:05;;;;;;;0.00;0.00;;;;;;;;;;10380779;28;20313;-64
2023/10/27 02:52:05;;;;;;;0.10;0.10;;;;;;;;;;10374166;28;20029;-64
2023/10/27 02:57:05;;;;;;;0.10;0.10;;;;;;;;;;10384137;28;20029;-63
2023/10/27 03:02:05;;;;;;;0.10;0.10;;;;;;;;;;10376023;28;20482;-63
2023/10/27 03:07:06;;;;;;;0.10;0.10;;;;;;;;;;10371392;28;20471;-63
2023/10/27 03:12:06;;;;;;;0.10;0.10;;;;;;;;;;10376676;28;20418;-63
2023/10/27 03:17:06;;;;;;;0.10;0.10;;;;;;;;;;10379266;28;20013;-63
2023/10/27 03:22:06;;;;;;;0.10;0.10;;;;;;;;;;10371595;28;20040;-63
2023/10/27 03:27:06;;;;;;;0.10;0.10;;;;;;;;;;10372141;28;20087;-63
2023/10/27 03:32:08;;;;;;;0.10;0.10;;;;;;;;;;10371240;28;20030;-63
2023/10/27 03:37:08;;;;;;;0.10;0.10;;;;;;;;;;10387814;28;20013;-63
2023/10/27 03:42:08;;;;;;;0.00;0.00;;;;;;;;;;10379234;28;20029;-63
2023/10/27 03:47:09;;;;;;;0.10;0.10;;;;;;;;;;10402896;28;20042;-63
2023/10/27 03:52:09;;;;;;;0.00;0.00;;;;;;;;;;10385400;28;20024;-63
2023/10/27 03:57:09;;;;;;;0.00;0.00;;;;;;;;;;10386144;28;20045;-63
2023/10/27 04:02:10;;;;;;;0.00;0.00;;;;;;;;;;10375502;28;20365;-63
2023/10/27 04:07:10;;;;;;;0.00;0.00;;;;;;;;;;10392475;28;20048;-64
2023/10/27 04:12:10;;;;;;;0.10;0.10;;;;;;;;;;10387333;28;20091;-63
2023/10/27 04:17:10;;;;;;;0.10;0.10;;;;;;;;;;10390191;28;20014;-63
2023/10/27 04:22:11;;;;;;;0.10;0.10;;;;;;;;;;10391162;28;20047;-63
2023/10/27 04:27:11;;;;;;;0.10;0.10;;;;;;;;;;10381178;28;20010;-64
2023/10/27 04:32:12;;;;;;;0.08;0.08;;;;;;;;;;10397996;28;20021;-64
2023/10/27 04:37:12;;;;;;;0.00;0.00;;;;;;;;;;10389435;28;20534;-63
2023/10/27 04:42:12;;;;;;;0.10;0.10;;;;;;;;;;10394256;28;20017;-63
2023/10/27 04:47:13;;;;;;;0.10;0.10;;;;;;;;;;10390589;28;20272;-63
2023/10/27 04:52:13;;;;;;;0.10;0.10;;;;;;;;;;10390391;28;20018;-63
2023/10/27 04:57:13;;;;;;;0.10;0.10;;;;;;;;;;10388614;28;20021;-64
2023/10/27 05:02:13;;;;;;;0.00;0.00;;;;;;;;;;10389456;28;20018;-63
2023/10/27 05:07:13;;;;;;;0.00;0.00;;;;;;;;;;10389142;28;20025;-63
2023/10/27 05:12:14;;;;;;;0.10;0.10;;;;;;;;;;10380523;28;20020;-63
2023/10/27 05:17:14;;;;;;;0.10;0.10;;;;;;;;;;10384054;28;20017;-64
2023/10/27 05:22:14;;;;;;;0.10;0.10;;;;;;;;;;10390918;28;20029;-64
2023/10/27 05:27:14;;;;;;;0.00;0.00;;;;;;;;;;10385527;28;20125;-63
2023/10/27 05:32:15;;;;;;;0.00;0.00;;;;;;;;;;10385872;28;20022;-64
2023/10/27 05:37:15;;;;;;;0.00;0.00;;;;;;;;;;10380749;28;20067;-64
2023/10/27 05:42:15;;;;;;;0.05;0.05;;;;;;;;;;10388248;28;20144;-63
2023/10/27 05:47:16;;;;;;;0.00;0.00;;;;;;;;;;10390559;28;20037;-64
2023/10/27 05:52:16;;;;;;;0.00;0.00;;;;;;;;;;10383109;28;20033;-64
2023/10/27 05:57:16;;;;;;;0.00;0.00;;;;;;;;;;10389048;28;20014;-64
2023/10/27 06:02:16;;;;;;;0.10;0.10;;;;;;;;;;10382212;28;20032;-64
2023/10/27 06:07:17;;;;;;;0.00;0.00;;;;;;;;;;10383887;28;20018;-63
2023/10/27 06:12:17;;;;;;;0.10;0.10;;;;;;;;;;10390817;28;20485;-64
2023/10/27 06:17:17;;;;;;;0.00;0.00;;;;;;;;;;10372086;28;20014;-64
2023/10/27 06:22:18;;;;;;;0.10;0.10;;;;;;;;;;10375085;28;20117;-64
2023/10/27 06:27:18;;;;;;;0.10;0.10;;;;;;;;;;10379440;28;20089;-64
2023/10/27 06:32:19;;;;;;;0.10;0.10;;;;;;;;;;10374026;28;20120;-63
2023/10/27 06:37:19;;;;;;;0.10;0.10;;;;;;;;;;10371121;28;20018;-64
2023/10/27 06:42:20;;;;;;;0.00;0.00;;;;;;;;;;10376936;28;20165;-64
2023/10/27 06:47:20;;;;;;;0.10;0.10;;;;;;;;;;10383514;28;20021;-64
2023/10/27 06:52:21;;;;;;;0.00;0.00;;;;;;;;;;10373831;28;20187;-64
2023/10/27 06:57:21;;;;;;;0.10;0.10;;;;;;;;;;10373552;28;20096;-64
2023/10/27 07:02:22;;;;;;;0.00;0.00;;;;;;;;;;10367432;28;20117;-64
2023/10/27 07:07:22;;;;;;;0.10;0.10;;;;;;;;;;10380543;28;20016;-64
2023/10/27 07:12:22;;;;;;;0.10;0.10;;;;;;;;;;10382186;28;20017;-64
2023/10/27 07:17:23;;;;;;;0.00;0.00;;;;;;;;;;10380224;28;20378;-64
2023/10/27 07:22:23;;;;;;;0.05;0.05;;;;;;;;;;10390751;28;20026;-64
2023/10/27 07:27:23;;;;;;;0.03;0.03;;;;;;;;;;10385331;28;20380;-64
2023/10/27 07:32:23;;;;;;;0.10;0.10;;;;;;;;;;10384543;28;20022;-64
2023/10/27 07:37:23;;;;;;;0.10;0.10;;;;;;;;;;10378180;28;20320;-64
2023/10/27 07:42:24;;;;;;;0.03;0.03;;;;;;;;;;10381161;28;20108;-64
2023/10/27 07:47:24;;;;;;;0.10;0.10;;;;;;;;;;10383109;28;20033;-64
2023/10/27 07:52:24;;;;;;;0.00;0.00;;;;;;;;;;10391915;28;20018;-64
2023/10/27 07:57:25;;;;;;;0.00;0.00;;;;;;;;;;10388435;28;20022;-64
2023/10/27 08:02:25;;;;;;;0.10;0.10;;;;;;;;;;10378345;28;20022;-64
2023/10/27 08:07:25;;;;;;;0.00;0.00;;;;;;;;;;10382309;28;20268;-64
2023/10/27 08:12:26;;;;;;;0.10;0.10;;;;;;;;;;10382193;28;20029;-64
2023/10/27 08:17:26;;;;;;;0.10;0.10;;;;;;;;;;10385931;28;20071;-64
2023/10/27 08:22:26;;;;;;;0.10;0.10;;;;;;;;;;10389280;28;20144;-64
2023/10/27 08:27:26;;;;;;;0.00;0.00;;;;;;;;;;10380115;28;20426;-64
2023/10/27 08:32:26;;;;;;;0.10;0.10;;;;;;;;;;10381927;28;20013;-64
2023/10/27 08:37:27;;;;;;;0.10;0.10;;;;;;;;;;10379224;28;20100;-64
2023/10/27 08:42:33;;;;;;;0.00;0.00;;;;;;;;;;10379349;28;20117;-64
2023/10/27 08:47:34;;;;;;;0.10;0.10;;;;;;;;;;10376203;28;20018;-64
2023/10/27 08:52:34;;;;;;;0.10;0.10;;;;;;;;;;10360675;28;20459;-66
2023/10/27 08:57:35;;;;;;;0.08;0.08;;;;;;;;;;10356649;28;20022;-66
2023/10/27 09:02:38;;;;;;;0.10;0.10;;;;;;;;;;10353217;28;20560;-66
2023/10/27 09:07:38;;;;;;;0.10;0.10;;;;;;;;;;10354813;28;20057;-66
2023/10/27 09:12:40;;;;;;;0.00;0.00;;;;;;;;;;10357624;28;20046;-66
2023/10/27 09:17:49;;;;;;;0.00;0.00;;;;;;;;;;10355507;28;20023;-66
2023/10/27 09:22:55;;;;;;;0.10;0.10;;;;;;;;;;10351927;28;20375;-66
2023/10/27 09:27:56;;;;;;;0.08;0.08;;;;;;;;;;10354912;28;20028;-66
2023/10/27 09:33:16;;;;;;;0.05;0.05;;;;;;;;;;10361022;28;20022;-66
2023/10/27 09:38:17;;;;;;;0.10;0.10;;;;;;;;;;10355743;28;20013;-66
2023/10/27 09:43:19;;;;;;;0.03;0.03;;;;;;;;;;10353149;28;20136;-66
2023/10/27 09:48:29;;;;;;;0.10;0.10;;;;;;;;;;10353448;28;20050;-66
2023/10/27 09:53:30;;;;;;;0.10;0.10;;;;;;;;;;10352039;28;20045;-66
2023/10/27 09:58:31;;;;;;;0.10;0.10;;;;;;;;;;10352569;28;20027;-65
2023/10/27 10:03:32;;;;;;;0.10;0.10;;;;;;;;;;10352918;28;20014;-66
2023/10/27 10:08:32;;;;;;;0.05;0.05;;;;;;;;;;10348316;28;20380;-66
2023/10/27 10:13:36;;;;;;;0.10;0.10;;;;;;;;;;10349294;28;20022;-66
2023/10/27 10:18:37;;;;;;;0.10;0.10;;;;;;;;;;10349664;28;20081;-68
2023/10/27 10:23:37;;;;;;;0.10;0.10;;;;;;;;;;10350043;28;20417;-67
2023/10/27 10:28:39;;;;;;;0.10;0.10;;;;;;;;;;10350058;28;20491;-68
2023/10/27 10:33:40;;;;;;;0.00;0.00;;;;;;;;;;10359440;28;20483;-66
2023/10/27 10:38:43;;;;;;;0.10;0.10;;;;;;;;;;10344787;28;20022;-66
2023/10/27 10:43:43;;;;;;;0.10;0.10;;;;;;;;;;10345900;28;20683;-66
2023/10/27 10:48:46;;;;;;;0.10;0.10;;;;;;;;;;10351347;28;20053;-66
2023/10/27 10:53:53;;;;;;;0.00;0.00;;;;;;;;;;10346963;28;20030;-66
2023/10/27 10:58:54;;;;;;;0.10;0.10;;;;;;;;;;10341949;28;20105;-66
2023/10/27 11:03:56;;;;;;;0.00;0.00;;;;;;;;;;10349642;28;20018;-66
2023/10/27 11:08:56;;;;;;;0.10;0.10;;;;;;;;;;10355130;28;20054;-66
2023/10/27 11:13:57;;;;;;;0.10;0.10;;;;;;;;;;10359345;28;20049;-66
2023/10/27 11:18:57;;;;;;;0.10;0.10;;;;;;;;;;10359041;28;20018;-64
2023/10/27 11:23:57;;;;;;;0.10;0.10;;;;;;;;;;10373324;28;20043;-64
2023/10/27 11:28:59;;;;;;;0.10;0.10;;;;;;;;;;10377861;28;20534;-65
2023/10/27 11:34:13;;;;;;;0.10;0.10;;;;;;;;;;10372833;28;20057;-64
2023/10/27 11:39:14;;;;;;;0.10;0.10;;;;;;;;;;10367759;28;20642;-64
2023/10/27 11:44:14;;;;;;;0.00;0.00;;;;;;;;;;10377538;28;20375;-64
2023/10/27 11:49:15;;;;;;;0.10;0.10;;;;;;;;;;10381500;28;20032;-64
2023/10/27 11:54:15;;;;;;;0.00;0.00;;;;;;;;;;10374911;28;20068;-64
2023/10/27 11:59:16;;;;;;;0.05;0.05;;;;;;;;;;10391442;28;20018;-64
2023/10/27 12:04:16;;;;;;;0.10;0.10;;;;;;;;;;10391260;28;20029;-64
2023/10/27 12:09:17;;;;;;;0.00;0.00;;;;;;;;;;10369172;28;20040;-64
2023/10/27 12:14:17;;;;;;;0.10;0.10;;;;;;;;;;10384871;28;20026;-64
2023/10/27 12:19:17;;;;;;;0.00;0.00;;;;;;;;;;10397184;28;20368;-64
2023/10/27 12:24:17;;;;;;;0.00;0.00;;;;;;;;;;10375151;28;20084;-64
2023/10/27 12:29:19;;;;;;;0.00;0.00;;;;;;;;;;10385705;28;20068;-64
2023/10/27 12:34:19;;;;;;;0.10;0.10;;;;;;;;;;10377073;28;20033;-64
2023/10/27 12:39:22;;;;;;;0.10;0.10;;;;;;;;;;10374491;28;20132;-64
2023/10/27 12:44:23;;;;;;;0.05;0.05;;;;;;;;;;10380573;28;20048;-63
2023/10/27 12:49:25;;;;;;;0.10;0.10;;;;;;;;;;10384819;28;20041;-64
2023/10/27 12:54:25;;;;;;;0.10;0.10;;;;;;;;;;10376948;28;20483;-64
2023/10/27 12:59:25;;;;;;;0.10;0.10;;;;;;;;;;10381784;28;20022;-64
2023/10/27 13:04:25;;;;;;;0.00;0.00;;;;;;;;;;10382399;28;20253;-65
2023/10/27 13:09:27;;;;;;;0.10;0.10;;;;;;;;;;10375534;28;20104;-65
2023/10/27 13:14:29;;;;;;;0.00;0.00;;;;;;;;;;10381967;28;20029;-65
2023/10/27 13:19:29;;;;;;;0.10;0.10;;;;;;;;;;10371033;28;20016;-65
2023/10/27 13:24:31;;;;;;;0.00;0.00;;;;;;;;;;10374672;28;20048;-65
2023/10/27 13:29:31;;;;;;;0.00;0.00;;;;;;;;;;10367417;28;20795;-65
2023/10/27 13:34:31;;;;;;;0.00;0.00;;;;;;;;;;10378981;28;20026;-65
2023/10/27 13:39:34;;;;;;;0.10;0.10;;;;;;;;;;10374137;28;20569;-64
2023/10/27 13:44:37;;;;;;;0.00;0.00;;;;;;;;;;10374811;28;20112;-65
2023/10/27 13:49:38;;;;;;;0.00;0.00;;;;;;;;;;10380558;28;20026;-65
2023/10/27 13:54:38;;;;;;;0.10;0.10;;;;;;;;;;10380894;28;20487;-65
2023/10/27 13:59:40;;;;;;;0.05;0.05;;;;;;;;;;10366731;28;20346;-65
2023/10/27 14:04:40;;;;;;;0.05;0.05;;;;;;;;;;10379657;28;20148;-65
2023/10/27 14:09:40;;;;;;;0.10;0.10;;;;;;;;;;10363662;28;20352;-65
2023/10/27 14:14:41;;;;;;;0.10;0.10;;;;;;;;;;10378283;28;20036;-65
2023/10/27 14:19:41;;;;;;;0.00;0.00;;;;;;;;;;10374898;28;20025;-65
2023/10/27 14:24:41;;;;;;;0.00;0.00;;;;;;;;;;10376811;28;20023;-65
2023/10/27 14:29:42;;;;;;;0.00;0.00;;;;;;;;;;10375011;28;20037;-65
2023/10/27 14:34:42;;;;;;;0.10;0.10;;;;;;;;;;10373261;28;20014;-65
2023/10/27 14:39:43;;;;;;;0.00;0.00;;;;;;;;;;10372829;28;20049;-65
2023/10/27 14:44:43;;;;;;;0.10;0.10;;;;;;;;;;10389695;28;20479;-64
2023/10/27 14:49:43;;;;;;;0.10;0.10;;;;;;;;;;10377615;28;20025;-65
2023/10/27 14:54:43;;;;;;;0.10;0.10;;;;;;;;;;10384483;28;20025;-65
2023/10/27 14:59:44;;;;;;;0.03;0.03;;;;;;;;;;10377913;28;20022;-65
2023/10/27 15:04:46;;;;;;;0.10;0.10;;;;;;;;;;10381241;28;20075;-64
2023/10/27 15:09:46;;;;;;;0.10;0.10;;;;;;;;;;10373701;28;20026;-65
2023/10/27 15:14:50;;;;;;;0.00;0.00;;;;;;;;;;10389929;28;20026;-65
2023/10/27 15:19:50;;;;;;;0.00;0.00;;;;;;;;;;10389339;28;20447;-65
2023/10/27 15:24:50;;;;;;;0.00;0.00;;;;;;;;;;10380541;28;20112;-65
2023/10/27 15:29:51;;;;;;;0.08;0.08;;;;;;;;;;10382835;28;20182;-65
2023/10/27 15:34:51;;;;;;;0.10;0.10;;;;;;;;;;10390275;28;20130;-65
2023/10/27 15:39:52;;;;;;;0.10;0.10;;;;;;;;;;10389474;28;20482;-65
2023/10/27 15:44:58;;;;;;;0.10;0.10;;;;;;;;;;10382282;28;20022;-65
2023/10/27 15:49:59;;;;;;;0.10;0.10;;;;;;;;;;10391511;28;20022;-65
2023/10/27 15:54:59;;;;;;;0.00;0.00;;;;;;;;;;10393308;28;20529;-68
2023/10/27 15:59:59;;;;;;;0.00;0.00;;;;;;;;;;10397014;28;20018;-66
2023/10/27 16:04:59;;;;;;;0.05;0.05;;;;;;;;;;10379879;28;20472;-64
2023/10/27 16:10:00;;;;;;;0.10;0.10;;;;;;;;;;10389572;28;20478;-65
2023/10/27 16:15:00;;;;;;;0.10;0.10;;;;;;;;;;10380235;28;20034;-63
2023/10/27 16:20:00;;;;;;;0.00;0.00;;;;;;;;;;10379311;28;20079;-63
2023/10/27 16:25:00;;;;;;;0.10;0.10;;;;;;;;;;10391100;28;20018;-63
2023/10/27 16:30:01;;;;;;;0.10;0.10;;;;;;;;;;10391291;28;20075;-63
2023/10/27 16:35:03;;;;;;;0.10;0.10;;;;;;;;;;10394785;28;20020;-63
2023/10/27 16:40:03;;;;;;;0.10;0.10;;;;;;;;;;10377151;28;20025;-64
2023/10/27 16:45:04;;;;;;;0.10;0.10;;;;;;;;;;10395313;28;20017;-64
2023/10/27 16:50:04;;;;;;;0.00;0.00;;;;;;;;;;10375949;28;20026;-63
2023/10/27 16:55:05;;;;;;;0.10;0.10;;;;;;;;;;10390238;28;20034;-64
2023/10/27 17:00:05;;;;;;;0.10;0.10;;;;;;;;;;10384058;28;20068;-64
2023/10/27 17:05:10;;;;;;;0.00;0.00;;;;;;;;;;10382812;28;20105;-64
2023/10/27 17:10:10;;;;;;;0.10;0.10;;;;;;;;;;10382808;28;20088;-64
2023/10/27 17:15:12;;;;;;;0.00;0.00;;;;;;;;;;10378764;28;20034;-64
2023/10/27 17:20:13;;;;;;;0.10;0.10;;;;;;;;;;10377524;28;20553;-64
2023/10/27 17:25:14;;;;;;;0.10;0.10;;;;;;;;;;10383184;28;20045;-64
2023/10/27 17:30:15;;;;;;;0.00;0.00;;;;;;;;;;10384594;28;20051;-64
2023/10/27 17:35:15;;;;;;;0.10;0.10;;;;;;;;;;10385871;28;20033;-64
2023/10/27 17:40:15;;;;;;;0.00;0.00;;;;;;;;;;10390247;28;20293;-64
2023/10/27 17:45:16;;;;;;;0.00;0.00;;;;;;;;;;10385669;28;20606;-64
2023/10/27 17:50:17;;;;;;;0.00;0.00;;;;;;;;;;10376457;28;20080;-64
2023/10/27 17:55:17;;;;;;;0.10;0.10;;;;;;;;;;10374866;28;20116;-64
2023/10/27 18:00:17;;;;;;;0.10;0.10;;;;;;;;;;10377739;28;20102;-64
2023/10/27 18:05:19;;;;;;;0.00;0.00;;;;;;;;;;10386070;28;20030;-63
2023/10/27 18:10:19;;;;;;;0.00;0.00;;;;;;;;;;10377204;28;20053;-64
2023/10/27 18:15:19;;;;;;;0.00;0.00;;;;;;;;;;10372755;28;20048;-64
2023/10/27 18:20:20;;;;;;;0.10;0.10;;;;;;;;;;10373598;28;20028;-64
2023/10/27 18:25:20;;;;;;;0.00;0.00;;;;;;;;;;10382511;28;20256;-64
2023/10/27 18:30:21;;;;;;;0.00;0.00;;;;;;;;;;10378844;28;20117;-64
2023/10/27 18:35:23;;;;;;;0.10;0.10;;;;;;;;;;10383179;28;20025;-64
2023/10/27 18:40:25;;;;;;;0.00;0.00;;;;;;;;;;10393080;28;20067;-64
2023/10/27 18:45:25;;;;;;;0.00;0.00;;;;;;;;;;10377832;28;20109;-64
2023/10/27 18:50:26;;;;;;;0.10;0.10;;;;;;;;;;10372834;28;20547;-64
2023/10/27 18:55:26;;;;;;;0.10;0.10;;;;;;;;;;10374049;28;20491;-64
2023/10/27 19:00:28;;;;;;;0.10;0.10;;;;;;;;;;10377897;28;20022;-64
2023/10/27 19:05:28;;;;;;;0.10;0.10;;;;;;;;;;10370706;28;20029;-64
2023/10/27 19:10:29;;;;;;;0.10;0.10;;;;;;;;;;10378401;28;20018;-64
2023/10/27 19:15:31;;;;;;;0.00;0.00;;;;;;;;;;10390127;28;20029;-64
2023/10/27 19:20:31;;;;;;;0.10;0.10;;;;;;;;;;10382931;28;20021;-65
2023/10/27 19:25:31;;;;;;;0.10;0.10;;;;;;;;;;10371681;28;20030;-64
2023/10/27 19:30:32;;;;;;;0.10;0.10;;;;;;;;;;10383503;28;20014;-64
2023/10/27 19:35:32;;;;;;;0.00;0.00;;;;;;;;;;10366828;28;20116;-64
2023/10/27 19:40:32;;;;;;;0.10;0.10;;;;;;;;;;10377576;28;20010;-63
2023/10/27 19:45:35;;;;;;;0.10;0.10;;;;;;;;;;10379343;28;20458;-64
2023/10/27 19:50:35;;;;;;;0.10;0.10;;;;;;;;;;10386378;28;20327;-64
2023/10/27 19:55:35;;;;;;;0.00;0.00;;;;;;;;;;10375067;28;20109;-64
2023/10/27 20:00:36;;;;;;;0.00;0.00;;;;;;;;;;10384720;28;20052;-64
2023/10/27 20:05:37;;;;;;;0.10;0.10;;;;;;;;;;10386879;28;20018;-64
2023/10/27 20:10:42;;;;;;;0.10;0.10;;;;;;;;;;10381988;28;20022;-64
2023/10/27 20:15:44;;;;;;;0.00;0.00;;;;;;;;;;10372996;28;20586;-64
2023/10/27 20:20:44;;;;;;;0.10;0.10;;;;;;;;;;10382142;28;20014;-63
2023/10/27 20:25:46;;;;;;;0.10;0.10;;;;;;;;;;10383278;28;20033;-64
2023/10/27 20:30:46;;;;;;;0.10;0.10;;;;;;;;;;10389044;28;20785;-64
2023/10/27 20:35:46;;;;;;;0.10;0.10;;;;;;;;;;10381963;28;20113;-64
2023/10/27 20:40:47;;;;;;;0.00;0.00;;;;;;;;;;10394587;28;20025;-63
2023/10/27 20:45:47;;;;;;;0.00;0.00;;;;;;;;;;10380705;28;20029;-64
2023/10/27 20:50:47;;;;;;;0.00;0.00;;;;;;;;;;10385464;28;20022;-64
2023/10/27 20:55:48;;;;;;;0.00;0.00;;;;;;;;;;10379671;28;20049;-64
2023/10/27 21:00:48;;;;;;;0.10;0.10;;;;;;;;;;10382999;28;20064;-64
2023/10/27 21:05:48;;;;;;;0.10;0.10;;;;;;;;;;10391751;28;20029;-64
2023/10/27 21:10:50;;;;;;;0.00;0.00;;;;;;;;;;10384567;28;20026;-64
2023/10/27 21:15:51;;;;;;;0.00;0.00;;;;;;;;;;10381346;28;20111;-63
2023/10/27 21:20:51;;;;;;;0.10;0.10;;;;;;;;;;10383418;28;20091;-63
2023/10/27 21:25:54;;;;;;;0.10;0.10;;;;;;;;;;10381087;28;20029;-62
2023/10/27 21:30:57;;;;;;;0.10;0.10;;;;;;;;;;10379657;28;20049;-63
2023/10/27 21:35:57;;;;;;;0.10;0.10;;;;;;;;;;10373443;28;20052;-63
2023/10/27 21:40:58;;;;;;;0.03;0.03;;;;;;;;;;10385703;28;20020;-63
2023/10/27 21:45:58;;;;;;;0.10;0.10;;;;;;;;;;10384553;28;20017;-63
2023/10/27 21:51:13;;;;;;;0.00;0.00;;;;;;;;;;10378754;28;20018;-63
2023/10/27 21:56:13;;;;;;;0.10;0.10;;;;;;;;;;10387969;28;20027;-63
2023/10/27 22:01:13;;;;;;;0.00;0.00;;;;;;;;;;10367763;28;20032;-63
2023/10/27 22:06:14;;;;;;;0.10;0.10;;;;;;;;;;10384443;28;20248;-63
2023/10/27 22:11:14;;;;;;;0.00;0.00;;;;;;;;;;10384182;28;20422;-63
2023/10/27 22:16:15;;;;;;;0.03;0.03;;;;;;;;;;10379675;28;20108;-63
2023/10/27 22:21:15;;;;;;;0.10;0.10;;;;;;;;;;10386582;28;20037;-63
2023/10/27 22:26:16;;;;;;;0.10;0.10;;;;;;;;;;10373301;28;20036;-63
2023/10/27 22:31:16;;;;;;;0.00;0.00;;;;;;;;;;10380856;28;20029;-63
2023/10/27 22:36:19;;;;;;;0.00;0.00;;;;;;;;;;10379155;28;20120;-63
2023/10/27 22:41:19;;;;;;;0.10;0.10;;;;;;;;;;10367552;28;20025;-63
2023/10/27 22:46:19;;;;;;;0.00;0.00;;;;;;;;;;10376212;28;20092;-63
2023/10/27 22:51:20;;;;;;;0.00;0.00;;;;;;;;;;10385752;28;20128;-63
2023/10/27 22:56:20;;;;;;;0.00;0.00;;;;;;;;;;10383877;28;20443;-63
2023/10/27 23:01:21;;;;;;;0.00;0.00;;;;;;;;;;10376051;28;20029;-63
2023/10/27 23:06:23;;;;;;;0.05;0.05;;;;;;;;;;10370451;28;20025;-63
2023/10/27 23:11:23;;;;;;;0.00;0.00;;;;;;;;;;10380753;28;20033;-63
2023/10/27 23:16:23;;;;;;;0.00;0.00;;;;;;;;;;10380790;28;20030;-63
2023/10/27 23:21:24;;;;;;;0.00;0.00;;;;;;;;;;10375940;28;20439;-63
2023/10/27 23:26:24;;;;;;;0.03;0.03;;;;;;;;;;10373945;28;20021;-63
2023/10/27 23:31:24;;;;;;;0.00;0.00;;;;;;;;;;10363911;28;20550;-63
2023/10/27 23:36:26;;;;;;;0.10;0.10;;;;;;;;;;10366795;28;20395;-63
2023/10/27 23:41:26;;;;;;;0.10;0.10;;;;;;;;;;10371003;28;20108;-63
2023/10/27 23:46:27;;;;;;;0.10;0.10;;;;;;;;;;10381222;28;20096;-62
2023/10/27 23:51:27;;;;;;;0.00;0.00;;;;;;;;;;10376165;28;20032;-63
2023/10/27 23:56:27;;;;;;;0.03;0.03;;;;;;;;;;10383331;28;20482;-62
